sensor_id;sensor_type;location;lat;lon;timestamp;temperature;humidity
15916;DHT22;8057;47.830;-3.870;2024-03-17T00:03:06;12.90;99.90
15916;DHT22;8057;47.830;-3.870;2024-03-17T00:07:15;12.90;99.90
15916;DHT22;8057;47.830;-3.870;2024-03-17T00:11:24;13.00;99.90
15916;DHT22;8057;47.830;-3.870;2024-03-17T00:15:32;13.00;99.90
15916;DHT22;8057;47.830;-3.870;2024-03-17T00:19:41;13.00;99.90
15916;DHT22;8057;47.830;-3.870;2024-03-17T00:23:49;13.00;99.90
15916;DHT22;8057;47.830;-3.870;2024-03-17T00:27:58;13.00;99.90
15916;DHT22;8057;47.830;-3.870;2024-03-17T00:32:06;13.00;99.90
15916;DHT22;8057;47.830;-3.870;2024-03-17T00:36:18;12.90;99.90
15916;DHT22;8057;47.830;-3.870;2024-03-17T00:40:25;12.90;99.90
15916;DHT22;8057;47.830;-3.870;2024-03-17T00:44:34;13.00;99.90
15916;DHT22;8057;47.830;-3.870;2024-03-17T00:48:41;13.00;99.90
15916;DHT22;8057;47.830;-3.870;2024-03-17T00:52:51;12.90;99.90
15916;DHT22;8057;47.830;-3.870;2024-03-17T00:56:59;12.90;99.90
15916;DHT22;8057;47.830;-3.870;2024-03-17T01:01:07;13.00;99.90
15916;DHT22;8057;47.830;-3.870;2024-03-17T01:05:15;13.00;99.90
15916;DHT22;8057;47.830;-3.870;2024-03-17T01:09:24;13.00;99.90
15916;DHT22;8057;47.830;-3.870;2024-03-17T01:13:32;13.10;99.90
15916;DHT22;8057;47.830;-3.870;2024-03-17T01:17:40;13.00;99.90
15916;DHT22;8057;47.830;-3.870;2024-03-17T01:21:48;12.90;99.90
15916;DHT22;8057;47.830;-3.870;2024-03-17T01:25:58;12.90;99.90
15916;DHT22;8057;47.830;-3.870;2024-03-17T01:30:06;13.00;99.90
15916;DHT22;8057;47.830;-3.870;2024-03-17T01:34:15;13.00;99.90
15916;DHT22;8057;47.830;-3.870;2024-03-17T01:38:23;13.00;99.90
15916;DHT22;8057;47.830;-3.870;2024-03-17T01:42:32;13.00;99.90
15916;DHT22;8057;47.830;-3.870;2024-03-17T01:46:40;13.10;99.90
15916;DHT22;8057;47.830;-3.870;2024-03-17T01:50:48;13.10;99.90
15916;DHT22;8057;47.830;-3.870;2024-03-17T01:54:56;13.10;99.90
15916;DHT22;8057;47.830;-3.870;2024-03-17T01:59:07;13.10;99.90
15916;DHT22;8057;47.830;-3.870;2024-03-17T02:03:15;13.10;99.90
15916;DHT22;8057;47.830;-3.870;2024-03-17T02:07:23;13.10;99.90
15916;DHT22;8057;47.830;-3.870;2024-03-17T02:11:31;13.10;99.90
15916;DHT22;8057;47.830;-3.870;2024-03-17T02:15:41;13.10;99.90
15916;DHT22;8057;47.830;-3.870;2024-03-17T02:19:49;13.10;99.90
15916;DHT22;8057;47.830;-3.870;2024-03-17T02:23:58;13.10;99.90
15916;DHT22;8057;47.830;-3.870;2024-03-17T02:28:06;13.10;99.90
15916;DHT22;8057;47.830;-3.870;2024-03-17T02:32:14;13.20;99.90
15916;DHT22;8057;47.830;-3.870;2024-03-17T02:36:21;13.20;99.90
15916;DHT22;8057;47.830;-3.870;2024-03-17T02:40:31;13.20;99.90
15916;DHT22;8057;47.830;-3.870;2024-03-17T02:44:38;13.20;99.90
15916;DHT22;8057;47.830;-3.870;2024-03-17T02:48:51;13.10;99.90
15916;DHT22;8057;47.830;-3.870;2024-03-17T02:52:59;13.10;99.90
15916;DHT22;8057;47.830;-3.870;2024-03-17T02:57:10;13.10;99.90
15916;DHT22;8057;47.830;-3.870;2024-03-17T03:01:18;13.10;99.90
15916;DHT22;8057;47.830;-3.870;2024-03-17T03:05:27;13.10;99.90
15916;DHT22;8057;47.830;-3.870;2024-03-17T03:09:36;13.10;99.90
15916;DHT22;8057;47.830;-3.870;2024-03-17T03:13:46;13.10;99.90
15916;DHT22;8057;47.830;-3.870;2024-03-17T03:17:55;13.10;99.90
15916;DHT22;8057;47.830;-3.870;2024-03-17T03:22:04;13.00;99.90
15916;DHT22;8057;47.830;-3.870;2024-03-17T03:26:12;13.00;99.90
15916;DHT22;8057;47.830;-3.870;2024-03-17T03:30:22;12.90;99.90
15916;DHT22;8057;47.830;-3.870;2024-03-17T03:34:31;13.00;99.90
15916;DHT22;8057;47.830;-3.870;2024-03-17T03:38:40;13.10;99.90
15916;DHT22;8057;47.830;-3.870;2024-03-17T03:42:48;13.10;99.90
15916;DHT22;8057;47.830;-3.870;2024-03-17T03:46:58;13.00;99.90
15916;DHT22;8057;47.830;-3.870;2024-03-17T03:51:07;13.00;99.90
15916;DHT22;8057;47.830;-3.870;2024-03-17T03:55:16;13.00;99.90
15916;DHT22;8057;47.830;-3.870;2024-03-17T03:59:26;13.00;99.90
15916;DHT22;8057;47.830;-3.870;2024-03-17T04:03:35;13.00;99.90
15916;DHT22;8057;47.830;-3.870;2024-03-17T04:07:44;13.00;99.90
15916;DHT22;8057;47.830;-3.870;2024-03-17T04:11:52;13.00;99.90
15916;DHT22;8057;47.830;-3.870;2024-03-17T04:16:03;13.00;99.90
15916;DHT22;8057;47.830;-3.870;2024-03-17T04:20:14;13.00;99.90
15916;DHT22;8057;47.830;-3.870;2024-03-17T04:24:22;12.90;99.90
15916;DHT22;8057;47.830;-3.870;2024-03-17T04:28:31;13.00;99.90
15916;DHT22;8057;47.830;-3.870;2024-03-17T04:32:39;12.90;99.90
15916;DHT22;8057;47.830;-3.870;2024-03-17T04:36:48;12.90;99.90
15916;DHT22;8057;47.830;-3.870;2024-03-17T04:40:56;13.00;99.90
15916;DHT22;8057;47.830;-3.870;2024-03-17T04:45:10;13.00;99.90
15916;DHT22;8057;47.830;-3.870;2024-03-17T04:49:17;13.00;99.90
15916;DHT22;8057;47.830;-3.870;2024-03-17T04:53:27;13.00;99.90
15916;DHT22;8057;47.830;-3.870;2024-03-17T04:57:35;13.00;99.90
15916;DHT22;8057;47.830;-3.870;2024-03-17T05:01:43;13.00;99.90
15916;DHT22;8057;47.830;-3.870;2024-03-17T05:05:57;13.00;99.90
15916;DHT22;8057;47.830;-3.870;2024-03-17T05:10:08;13.00;99.90
15916;DHT22;8057;47.830;-3.870;2024-03-17T05:14:16;13.00;99.90
15916;DHT22;8057;47.830;-3.870;2024-03-17T05:18:25;13.00;99.90
15916;DHT22;8057;47.830;-3.870;2024-03-17T05:22:32;13.00;99.90
15916;DHT22;8057;47.830;-3.870;2024-03-17T05:26:41;13.00;99.90
15916;DHT22;8057;47.830;-3.870;2024-03-17T05:30:49;13.00;99.90
15916;DHT22;8057;47.830;-3.870;2024-03-17T05:34:58;13.00;99.90
15916;DHT22;8057;47.830;-3.870;2024-03-17T05:39:06;13.00;99.90
15916;DHT22;8057;47.830;-3.870;2024-03-17T05:43:16;12.90;99.90
15916;DHT22;8057;47.830;-3.870;2024-03-17T05:47:23;12.90;99.90
15916;DHT22;8057;47.830;-3.870;2024-03-17T05:51:31;12.90;99.90
15916;DHT22;8057;47.830;-3.870;2024-03-17T05:55:38;12.90;99.90
15916;DHT22;8057;47.830;-3.870;2024-03-17T05:59:50;12.90;99.90
15916;DHT22;8057;47.830;-3.870;2024-03-17T06:03:57;12.90;99.90
15916;DHT22;8057;47.830;-3.870;2024-03-17T06:08:06;12.90;99.90
15916;DHT22;8057;47.830;-3.870;2024-03-17T06:12:14;12.90;99.90
15916;DHT22;8057;47.830;-3.870;2024-03-17T06:16:23;12.90;99.90
15916;DHT22;8057;47.830;-3.870;2024-03-17T06:20:31;12.90;99.90
15916;DHT22;8057;47.830;-3.870;2024-03-17T06:24:38;12.90;99.90
15916;DHT22;8057;47.830;-3.870;2024-03-17T06:28:46;12.90;99.90
15916;DHT22;8057;47.830;-3.870;2024-03-17T06:32:55;12.80;99.90
15916;DHT22;8057;47.830;-3.870;2024-03-17T06:37:03;12.80;99.90
15916;DHT22;8057;47.830;-3.870;2024-03-17T06:41:11;12.80;99.90
15916;DHT22;8057;47.830;-3.870;2024-03-17T06:45:20;12.80;99.90
15916;DHT22;8057;47.830;-3.870;2024-03-17T06:49:29;12.80;99.90
15916;DHT22;8057;47.830;-3.870;2024-03-17T06:53:37;12.80;99.90
15916;DHT22;8057;47.830;-3.870;2024-03-17T06:57:45;12.90;99.90
15916;DHT22;8057;47.830;-3.870;2024-03-17T07:01:53;12.90;99.90
15916;DHT22;8057;47.830;-3.870;2024-03-17T07:06:02;13.00;99.90
15916;DHT22;8057;47.830;-3.870;2024-03-17T07:10:10;13.00;99.90
15916;DHT22;8057;47.830;-3.870;2024-03-17T07:14:18;13.00;99.90
15916;DHT22;8057;47.830;-3.870;2024-03-17T07:18:26;13.00;99.90
15916;DHT22;8057;47.830;-3.870;2024-03-17T07:22:36;13.10;99.90
15916;DHT22;8057;47.830;-3.870;2024-03-17T07:26:43;13.10;99.90
15916;DHT22;8057;47.830;-3.870;2024-03-17T07:30:52;13.00;99.90
15916;DHT22;8057;47.830;-3.870;2024-03-17T07:34:59;13.10;99.90
15916;DHT22;8057;47.830;-3.870;2024-03-17T07:39:09;13.10;99.90
15916;DHT22;8057;47.830;-3.870;2024-03-17T07:43:18;13.10;99.90
15916;DHT22;8057;47.830;-3.870;2024-03-17T07:47:26;13.10;99.90
15916;DHT22;8057;47.830;-3.870;2024-03-17T07:51:41;13.10;99.90
15916;DHT22;8057;47.830;-3.870;2024-03-17T07:56:00;13.20;99.90
15916;DHT22;8057;47.830;-3.870;2024-03-17T08:00:10;13.20;99.90
15916;DHT22;8057;47.830;-3.870;2024-03-17T08:04:22;13.20;99.90
15916;DHT22;8057;47.830;-3.870;2024-03-17T08:08:29;13.20;99.90
15916;DHT22;8057;47.830;-3.870;2024-03-17T08:12:39;13.20;99.90
15916;DHT22;8057;47.830;-3.870;2024-03-17T08:16:46;13.30;99.90
15916;DHT22;8057;47.830;-3.870;2024-03-17T08:20:54;13.50;99.90
15916;DHT22;8057;47.830;-3.870;2024-03-17T08:25:02;13.60;99.90
15916;DHT22;8057;47.830;-3.870;2024-03-17T08:29:12;13.60;99.90
15916;DHT22;8057;47.830;-3.870;2024-03-17T08:33:19;13.70;99.90
15916;DHT22;8057;47.830;-3.870;2024-03-17T08:37:28;13.70;99.90
15916;DHT22;8057;47.830;-3.870;2024-03-17T08:41:36;13.70;99.90
15916;DHT22;8057;47.830;-3.870;2024-03-17T08:45:45;13.70;99.90
15916;DHT22;8057;47.830;-3.870;2024-03-17T08:50:01;13.70;99.90
15916;DHT22;8057;47.830;-3.870;2024-03-17T08:54:10;13.70;99.90
15916;DHT22;8057;47.830;-3.870;2024-03-17T08:58:17;13.80;99.90
15916;DHT22;8057;47.830;-3.870;2024-03-17T09:02:27;13.80;99.90
15916;DHT22;8057;47.830;-3.870;2024-03-17T09:06:34;13.90;99.90
15916;DHT22;8057;47.830;-3.870;2024-03-17T09:10:45;13.90;99.90
15916;DHT22;8057;47.830;-3.870;2024-03-17T09:14:53;13.90;99.90
15916;DHT22;8057;47.830;-3.870;2024-03-17T09:19:02;13.90;99.90
15916;DHT22;8057;47.830;-3.870;2024-03-17T09:23:10;13.90;99.90
15916;DHT22;8057;47.830;-3.870;2024-03-17T09:27:17;13.90;99.90
15916;DHT22;8057;47.830;-3.870;2024-03-17T09:31:27;14.00;99.90
15916;DHT22;8057;47.830;-3.870;2024-03-17T09:35:38;14.10;99.90
15916;DHT22;8057;47.830;-3.870;2024-03-17T09:39:46;14.00;99.90
15916;DHT22;8057;47.830;-3.870;2024-03-17T09:43:54;14.10;99.90
15916;DHT22;8057;47.830;-3.870;2024-03-17T09:48:02;14.10;99.90
15916;DHT22;8057;47.830;-3.870;2024-03-17T09:52:13;14.10;99.90
15916;DHT22;8057;47.830;-3.870;2024-03-17T09:56:23;14.30;99.90
15916;DHT22;8057;47.830;-3.870;2024-03-17T10:00:30;14.40;99.90
15916;DHT22;8057;47.830;-3.870;2024-03-17T10:04:38;14.50;99.90
15916;DHT22;8057;47.830;-3.870;2024-03-17T10:08:48;14.50;99.90
15916;DHT22;8057;47.830;-3.870;2024-03-17T10:12:56;14.40;99.90
15916;DHT22;8057;47.830;-3.870;2024-03-17T10:17:03;14.40;99.90
15916;DHT22;8057;47.830;-3.870;2024-03-17T10:21:18;14.20;99.90
15916;DHT22;8057;47.830;-3.870;2024-03-17T10:25:33;14.20;99.90
15916;DHT22;8057;47.830;-3.870;2024-03-17T10:29:42;14.20;99.90
15916;DHT22;8057;47.830;-3.870;2024-03-17T10:34:00;14.20;99.90
15916;DHT22;8057;47.830;-3.870;2024-03-17T10:38:09;14.10;99.90
15916;DHT22;8057;47.830;-3.870;2024-03-17T10:42:20;14.10;99.90
15916;DHT22;8057;47.830;-3.870;2024-03-17T10:46:29;14.10;99.90
15916;DHT22;8057;47.830;-3.870;2024-03-17T10:50:38;14.30;99.90
15916;DHT22;8057;47.830;-3.870;2024-03-17T10:54:47;14.40;99.90
15916;DHT22;8057;47.830;-3.870;2024-03-17T10:58:58;14.40;99.90
15916;DHT22;8057;47.830;-3.870;2024-03-17T11:03:12;14.50;99.90
15916;DHT22;8057;47.830;-3.870;2024-03-17T11:07:22;14.70;99.90
15916;DHT22;8057;47.830;-3.870;2024-03-17T11:11:35;14.70;99.90
15916;DHT22;8057;47.830;-3.870;2024-03-17T11:15:56;14.70;99.90
15916;DHT22;8057;47.830;-3.870;2024-03-17T11:20:55;14.70;99.90
15916;DHT22;8057;47.830;-3.870;2024-03-17T11:39:52;15.00;99.90
15916;DHT22;8057;47.830;-3.870;2024-03-17T11:44:29;15.10;99.90
15916;DHT22;8057;47.830;-3.870;2024-03-17T11:54:35;15.30;99.90
15916;DHT22;8057;47.830;-3.870;2024-03-17T11:59:07;15.50;99.90
15916;DHT22;8057;47.830;-3.870;2024-03-17T12:03:24;15.60;99.90
15916;DHT22;8057;47.830;-3.870;2024-03-17T12:07:42;15.50;99.90
15916;DHT22;8057;47.830;-3.870;2024-03-17T12:11:58;15.50;99.90
15916;DHT22;8057;47.830;-3.870;2024-03-17T12:36:08;15.80;99.90
15916;DHT22;8057;47.830;-3.870;2024-03-17T12:45:09;15.90;99.90
15916;DHT22;8057;47.830;-3.870;2024-03-17T12:49:35;16.20;99.90
15916;DHT22;8057;47.830;-3.870;2024-03-17T13:35:40;16.60;99.90
15916;DHT22;8057;47.830;-3.870;2024-03-17T13:45:00;16.30;99.90
15916;DHT22;8057;47.830;-3.870;2024-03-17T13:49:54;16.10;99.90
15916;DHT22;8057;47.830;-3.870;2024-03-17T13:54:25;16.10;99.90
15916;DHT22;8057;47.830;-3.870;2024-03-17T13:58:33;16.00;99.90
15916;DHT22;8057;47.830;-3.870;2024-03-17T14:02:43;16.20;99.90
15916;DHT22;8057;47.830;-3.870;2024-03-17T14:06:52;16.20;99.90
15916;DHT22;8057;47.830;-3.870;2024-03-17T14:21:24;16.10;99.90
15916;DHT22;8057;47.830;-3.870;2024-03-17T14:25:37;16.00;99.90
15916;DHT22;8057;47.830;-3.870;2024-03-17T14:29:46;16.00;99.90
15916;DHT22;8057;47.830;-3.870;2024-03-17T14:33:53;15.80;99.90
15916;DHT22;8057;47.830;-3.870;2024-03-17T14:38:03;15.80;99.90
15916;DHT22;8057;47.830;-3.870;2024-03-17T14:42:10;15.60;99.90
15916;DHT22;8057;47.830;-3.870;2024-03-17T14:46:18;15.50;99.90
15916;DHT22;8057;47.830;-3.870;2024-03-17T14:50:26;15.50;99.90
15916;DHT22;8057;47.830;-3.870;2024-03-17T14:54:36;15.40;99.90
15916;DHT22;8057;47.830;-3.870;2024-03-17T14:58:44;15.30;99.90
15916;DHT22;8057;47.830;-3.870;2024-03-17T15:03:18;15.30;99.90
15916;DHT22;8057;47.830;-3.870;2024-03-17T15:07:27;15.20;99.90
15916;DHT22;8057;47.830;-3.870;2024-03-17T15:11:39;15.20;99.90
15916;DHT22;8057;47.830;-3.870;2024-03-17T15:15:47;15.30;99.90
15916;DHT22;8057;47.830;-3.870;2024-03-17T15:19:55;15.10;99.90
15916;DHT22;8057;47.830;-3.870;2024-03-17T15:24:04;15.00;99.90
15916;DHT22;8057;47.830;-3.870;2024-03-17T15:28:21;15.00;99.90
15916;DHT22;8057;47.830;-3.870;2024-03-17T15:32:28;14.90;99.90
15916;DHT22;8057;47.830;-3.870;2024-03-17T15:36:37;14.80;99.90
15916;DHT22;8057;47.830;-3.870;2024-03-17T15:40:46;14.80;99.90
15916;DHT22;8057;47.830;-3.870;2024-03-17T15:49:57;14.90;99.90
15916;DHT22;8057;47.830;-3.870;2024-03-17T15:54:06;14.80;99.90
15916;DHT22;8057;47.830;-3.870;2024-03-17T15:58:28;14.80;99.90
15916;DHT22;8057;47.830;-3.870;2024-03-17T16:02:38;14.70;99.90
15916;DHT22;8057;47.830;-3.870;2024-03-17T16:38:09;14.40;99.90
15916;DHT22;8057;47.830;-3.870;2024-03-17T16:42:52;14.30;99.90
15916;DHT22;8057;47.830;-3.870;2024-03-17T17:31:53;13.60;99.90
15916;DHT22;8057;47.830;-3.870;2024-03-17T17:36:45;13.50;99.90
15916;DHT22;8057;47.830;-3.870;2024-03-17T17:41:23;13.40;99.90
15916;DHT22;8057;47.830;-3.870;2024-03-17T17:46:03;13.40;99.90
15916;DHT22;8057;47.830;-3.870;2024-03-17T17:50:15;13.40;99.90
15916;DHT22;8057;47.830;-3.870;2024-03-17T17:54:24;13.40;99.90
15916;DHT22;8057;47.830;-3.870;2024-03-17T17:59:00;13.50;99.90
15916;DHT22;8057;47.830;-3.870;2024-03-17T18:03:09;13.40;99.90
15916;DHT22;8057;47.830;-3.870;2024-03-17T18:07:25;13.30;99.90
15916;DHT22;8057;47.830;-3.870;2024-03-17T18:15:55;13.30;99.90
15916;DHT22;8057;47.830;-3.870;2024-03-17T18:20:04;13.20;99.90
15916;DHT22;8057;47.830;-3.870;2024-03-17T18:32:56;13.10;99.90
15916;DHT22;8057;47.830;-3.870;2024-03-17T18:37:24;13.10;99.90
15916;DHT22;8057;47.830;-3.870;2024-03-17T18:41:53;13.10;99.90
15916;DHT22;8057;47.830;-3.870;2024-03-17T18:46:17;13.10;99.90
15916;DHT22;8057;47.830;-3.870;2024-03-17T19:20:00;13.10;99.90
15916;DHT22;8057;47.830;-3.870;2024-03-17T19:24:27;13.10;99.90
15916;DHT22;8057;47.830;-3.870;2024-03-17T19:29:04;13.10;99.90
15916;DHT22;8057;47.830;-3.870;2024-03-17T19:33:27;13.10;99.90
15916;DHT22;8057;47.830;-3.870;2024-03-17T19:37:48;13.10;99.90
15916;DHT22;8057;47.830;-3.870;2024-03-17T19:41:57;13.10;99.90
15916;DHT22;8057;47.830;-3.870;2024-03-17T19:46:22;13.10;99.90
15916;DHT22;8057;47.830;-3.870;2024-03-17T19:50:45;13.10;99.90
15916;DHT22;8057;47.830;-3.870;2024-03-17T19:54:59;13.10;99.90
15916;DHT22;8057;47.830;-3.870;2024-03-17T19:59:22;13.10;99.90
15916;DHT22;8057;47.830;-3.870;2024-03-17T20:03:47;13.10;99.90
15916;DHT22;8057;47.830;-3.870;2024-03-17T20:08:53;13.10;99.90
15916;DHT22;8057;47.830;-3.870;2024-03-17T21:30:16;13.30;99.90
15916;DHT22;8057;47.830;-3.870;2024-03-17T21:34:25;13.30;99.90
15916;DHT22;8057;47.830;-3.870;2024-03-17T21:38:51;13.30;99.90
